createdAt,value
2019-05-01T00:00:37.018Z,7.10
2019-05-01T00:03:09.623Z,7.37
2019-05-01T00:05:51.400Z,7.00
2019-05-01T00:08:19.657Z,7.00
2019-05-01T00:10:47.885Z,7.43
2019-05-01T00:13:16.151Z,8.20
2019-05-01T00:15:44.392Z,7.50
2019-05-01T00:18:12.643Z,7.93
2019-05-01T00:20:40.904Z,6.97
2019-05-01T00:23:09.158Z,7.40
2019-05-01T00:25:37.382Z,7.67
2019-05-01T00:28:05.980Z,8.07
2019-05-01T00:30:35.500Z,7.93
2019-05-01T00:33:03.745Z,7.90
2019-05-01T00:35:31.973Z,7.97
2019-05-01T00:38:00.232Z,7.13
2019-05-01T00:40:28.491Z,7.73
2019-05-01T00:42:56.761Z,8.30
2019-05-01T00:45:25.012Z,7.70
2019-05-01T00:47:53.293Z,8.03
2019-05-01T00:50:21.561Z,8.17
2019-05-01T00:52:49.797Z,7.50
2019-05-01T00:55:35.950Z,7.97
2019-05-01T00:58:05.836Z,8.13
2019-05-01T01:00:54.025Z,8.00
2019-05-01T01:03:22.458Z,8.50
2019-05-01T01:05:50.688Z,7.70
2019-05-01T01:08:18.917Z,7.27
2019-05-01T01:10:47.171Z,8.53
2019-05-01T01:13:15.397Z,8.77
2019-05-01T01:15:43.655Z,8.10
2019-05-01T01:18:11.895Z,8.07
2019-05-01T01:20:40.152Z,8.37
2019-05-01T01:23:08.380Z,8.10
2019-05-01T01:25:37.204Z,8.30
2019-05-01T01:28:17.584Z,7.90
2019-05-01T01:30:55.615Z,8.48
2019-05-01T01:33:15.797Z,8.70
2019-05-01T01:35:44.040Z,7.80
2019-05-01T01:38:12.285Z,7.73
2019-05-01T01:40:40.566Z,8.20
2019-05-01T01:43:26.653Z,7.67
2019-05-01T01:45:59.005Z,8.03
2019-05-01T01:48:27.246Z,7.47
2019-05-01T01:50:55.517Z,9.23
2019-05-01T01:53:23.770Z,8.63
2019-05-01T01:55:52.034Z,8.93
2019-05-01T01:58:20.265Z,9.17
2019-05-01T02:01:09.666Z,7.67
2019-05-01T02:03:43.774Z,7.40
2019-05-01T02:06:12.039Z,7.80
2019-05-01T02:08:40.277Z,8.77
2019-05-01T02:11:08.519Z,8.93
2019-05-01T02:13:36.752Z,8.83
2019-05-01T02:16:05.003Z,7.97
2019-05-01T02:18:33.229Z,8.83
2019-05-01T02:21:01.493Z,9.33
2019-05-01T02:23:29.759Z,9.80
2019-05-01T02:25:58.009Z,9.40
2019-05-01T02:28:30.865Z,9.00
2019-05-01T02:31:26.685Z,9.23
2019-05-01T02:33:40.580Z,9.43
2019-05-01T02:36:08.853Z,8.70
2019-05-01T02:38:37.283Z,8.73
2019-05-01T02:41:06.464Z,9.13
2019-05-01T02:43:36.198Z,8.60
2019-05-01T02:46:04.446Z,8.17
2019-05-01T02:48:34.711Z,8.53
2019-05-01T02:51:03.769Z,8.48
2019-05-01T02:53:32.074Z,9.37
2019-05-01T02:56:17.036Z,9.00
2019-05-01T02:58:45.859Z,8.90
2019-05-01T03:01:14.477Z,9.97
2019-05-01T03:03:42.936Z,8.77
2019-05-01T03:06:11.177Z,9.13
2019-05-01T03:08:39.427Z,9.70
2019-05-01T03:11:07.672Z,9.83
2019-05-01T03:13:36.016Z,10.20
2019-05-01T03:16:04.512Z,10.23
2019-05-01T03:18:40.395Z,9.80
2019-05-01T03:21:10.269Z,9.70
2019-05-01T03:26:35.651Z,10.40
2019-05-01T03:29:05.239Z,10.23
2019-05-01T03:31:36.047Z,9.93
2019-05-01T03:34:04.309Z,10.98
2019-05-01T03:36:32.547Z,12.07
2019-05-01T03:39:00.800Z,11.33
2019-05-01T03:41:29.039Z,11.43
2019-05-01T03:43:57.377Z,12.73
2019-05-01T03:46:26.191Z,12.47
2019-05-01T03:48:54.441Z,12.67
2019-05-01T03:51:22.678Z,12.53
2019-05-01T03:53:50.938Z,12.37
2019-05-01T03:56:19.165Z,11.77
2019-05-01T03:58:47.430Z,12.53
2019-05-01T04:01:17.305Z,11.30
2019-05-01T04:03:49.934Z,12.13
2019-05-01T04:06:18.166Z,11.67
2019-05-01T04:08:46.594Z,11.37
2019-05-01T04:11:14.850Z,11.23
2019-05-01T04:13:43.077Z,11.93
2019-05-01T04:16:11.333Z,12.77
2019-05-01T04:18:39.569Z,12.20
2019-05-01T04:21:08.376Z,12.07
2019-05-01T04:23:37.415Z,12.40
2019-05-01T04:26:06.802Z,11.20
2019-05-01T04:28:39.470Z,11.03
2019-05-01T04:31:27.471Z,12.50
2019-05-01T04:33:57.394Z,12.37
2019-05-01T04:36:27.336Z,12.57
2019-05-01T04:38:55.755Z,12.33
2019-05-01T04:41:24.014Z,12.37
2019-05-01T04:43:52.271Z,12.60
2019-05-01T04:46:20.529Z,13.03
2019-05-01T04:48:49.335Z,13.40
2019-05-01T04:51:18.061Z,13.00
2019-05-01T04:53:46.650Z,15.17
2019-05-01T04:56:14.908Z,15.90
2019-05-01T04:58:43.138Z,15.93
2019-05-01T05:01:11.396Z,15.10
2019-05-01T05:03:39.639Z,16.30
2019-05-01T05:06:07.915Z,16.20
2019-05-01T05:08:36.180Z,15.30
2019-05-01T05:11:06.049Z,14.23
2019-05-01T05:13:35.946Z,15.63
2019-05-01T05:16:20.650Z,14.70
2019-05-01T05:18:48.890Z,15.23
2019-05-01T05:21:17.148Z,14.20
2019-05-01T05:23:45.380Z,15.53
2019-05-01T05:26:13.652Z,14.17
2019-05-01T05:28:41.890Z,14.83
2019-05-01T05:31:10.124Z,15.53
2019-05-01T05:33:38.531Z,14.07
2019-05-01T05:36:06.896Z,13.70
2019-05-01T05:38:36.828Z,13.07
2019-05-01T05:41:05.072Z,12.63
2019-05-01T05:43:33.320Z,12.37
2019-05-01T05:46:01.553Z,13.97
2019-05-01T05:48:29.907Z,13.00
2019-05-01T05:51:03.453Z,15.20
2019-05-01T05:53:39.286Z,15.13
2019-05-01T05:56:09.202Z,12.27
2019-05-01T05:58:45.792Z,11.57
2019-05-01T06:01:21.455Z,11.07
2019-05-01T06:04:03.430Z,11.83
2019-05-01T06:06:36.478Z,12.50
2019-05-01T06:09:08.957Z,12.90
2019-05-01T06:11:43.294Z,13.20
2019-05-01T06:14:13.337Z,19.57
2019-05-01T06:16:58.295Z,20.87
2019-05-01T06:19:28.196Z,22.33
2019-05-01T06:22:14.584Z,21.83
2019-05-01T06:24:53.704Z,19.93
2019-05-01T06:27:21.981Z,18.57
2019-05-01T06:29:50.246Z,17.80
2019-05-01T06:32:18.482Z,17.00
2019-05-01T06:34:46.737Z,17.67
2019-05-01T06:37:14.983Z,18.30
2019-05-01T06:39:47.841Z,17.63
2019-05-01T06:42:15.125Z,17.10
2019-05-01T06:44:44.909Z,17.70
2019-05-01T06:47:14.787Z,16.70
2019-05-01T06:49:50.616Z,16.93
2019-05-01T06:52:24.823Z,16.30
2019-05-01T06:54:53.705Z,16.17
2019-05-01T06:57:21.946Z,16.85
2019-05-01T06:59:50.200Z,15.95
2019-05-01T07:02:18.617Z,17.37
2019-05-01T07:04:47.651Z,17.10
2019-05-01T07:07:25.061Z,17.45
2019-05-01T07:09:49.371Z,17.07
2019-05-01T07:12:17.521Z,17.77
2019-05-01T07:14:47.039Z,17.20
2019-05-01T07:17:15.763Z,17.00
2019-05-01T07:19:51.790Z,17.12
2019-05-01T07:22:20.049Z,16.60
2019-05-01T07:24:49.133Z,17.25
2019-05-01T07:27:18.797Z,17.73
2019-05-01T07:29:49.088Z,16.42
2019-05-01T07:32:17.414Z,18.17
2019-05-01T07:34:48.775Z,17.12
2019-05-01T07:37:16.123Z,16.30
2019-05-01T07:39:49.394Z,16.20
2019-05-01T07:42:33.979Z,16.12
2019-05-01T07:45:08.324Z,17.82
2019-05-01T07:47:38.470Z,15.98
2019-05-01T07:50:10.712Z,16.65
2019-05-01T07:52:39.142Z,16.55
2019-05-01T07:55:07.389Z,17.82
2019-05-01T07:57:39.623Z,16.20
2019-05-01T08:00:08.627Z,15.83
2019-05-01T08:02:37.057Z,16.05
2019-05-01T08:05:10.038Z,16.55
2019-05-01T08:07:36.041Z,15.35
2019-05-01T08:10:06.764Z,15.23
2019-05-01T08:12:35.102Z,14.47
2019-05-01T08:15:03.610Z,15.05
2019-05-01T08:17:33.591Z,14.95
2019-05-01T08:20:09.976Z,14.45
2019-05-01T08:22:37.523Z,14.65
2019-05-01T08:25:06.968Z,14.63
2019-05-01T08:27:36.872Z,14.55
2019-05-01T08:30:24.945Z,13.62
2019-05-01T08:33:14.775Z,14.45
2019-05-01T08:35:41.114Z,13.38
2019-05-01T08:38:09.422Z,13.58
2019-05-01T08:40:37.712Z,13.50
2019-05-01T08:43:05.974Z,13.90
2019-05-01T08:45:48.073Z,14.30
2019-05-01T08:48:20.803Z,14.60
2019-05-01T08:50:49.063Z,13.75
2019-05-01T08:53:18.039Z,13.55
2019-05-01T08:55:47.376Z,13.27
2019-05-01T08:58:16.000Z,13.90
2019-05-01T09:00:44.356Z,13.53
2019-05-01T09:03:13.543Z,13.32
2019-05-01T09:05:42.595Z,13.27
2019-05-01T09:08:11.053Z,12.50
2019-05-01T09:10:39.740Z,12.07
2019-05-01T09:13:08.015Z,12.15
2019-05-01T09:15:36.281Z,12.00
2019-05-01T09:18:04.557Z,11.70
2019-05-01T09:20:34.164Z,10.60
2019-05-01T09:23:02.453Z,10.10
2019-05-01T09:25:35.281Z,10.32
2019-05-01T09:28:05.688Z,10.20
2019-05-01T09:30:47.317Z,11.05
2019-05-01T09:33:15.577Z,9.23
2019-05-01T09:35:45.292Z,9.55
2019-05-01T09:38:13.919Z,9.43
2019-05-01T09:40:42.245Z,8.83
2019-05-01T09:43:10.505Z,8.85
2019-05-01T09:45:38.775Z,10.00
2019-05-01T09:48:08.626Z,9.35
2019-05-01T09:50:38.541Z,9.57
2019-05-01T09:53:29.663Z,9.50
2019-05-01T09:56:07.805Z,9.50
2019-05-01T09:58:34.432Z,9.35
2019-05-01T10:01:02.740Z,10.00
2019-05-01T10:03:30.967Z,9.10
2019-05-01T10:05:59.256Z,9.13
2019-05-01T10:08:27.511Z,8.78
2019-05-01T10:10:59.902Z,8.55
2019-05-01T10:13:25.784Z,8.50
2019-05-01T10:15:54.060Z,7.97
2019-05-01T10:18:22.312Z,8.00
2019-05-01T10:20:50.555Z,8.30
2019-05-01T10:23:18.816Z,7.83
2019-05-01T10:25:49.807Z,7.67
2019-05-01T10:28:19.785Z,7.08
2019-05-01T10:30:49.744Z,7.60
2019-05-01T10:33:19.626Z,7.23
2019-05-01T10:36:01.516Z,6.70
2019-05-01T10:38:29.760Z,6.70
2019-05-01T10:40:58.040Z,6.28
2019-05-01T10:43:26.256Z,6.85
2019-05-01T10:45:54.544Z,7.08
2019-05-01T10:48:22.784Z,7.42
2019-05-01T10:50:51.028Z,7.50
2019-05-01T10:53:19.257Z,6.58
2019-05-01T10:55:47.525Z,6.65
2019-05-01T10:58:17.947Z,7.20
2019-05-01T11:00:47.438Z,7.05
2019-05-01T11:03:15.736Z,6.53
2019-05-01T11:05:55.244Z,6.15
2019-05-01T11:08:14.028Z,6.30
2019-05-01T11:10:42.264Z,6.72
2019-05-01T11:13:10.514Z,7.15
2019-05-01T11:15:38.769Z,6.42
2019-05-01T11:18:07.143Z,6.85
2019-05-01T11:20:35.387Z,6.67
2019-05-01T11:23:03.690Z,7.53
2019-05-01T11:25:32.081Z,7.40
2019-05-01T11:28:00.365Z,6.92
2019-05-01T11:30:28.689Z,7.35
2019-05-01T11:33:01.578Z,6.47
2019-05-01T11:35:31.437Z,6.22
2019-05-01T11:38:04.338Z,6.73
2019-05-01T11:40:34.233Z,7.12
2019-05-01T11:43:02.847Z,7.73
2019-05-01T11:45:31.129Z,6.80
2019-05-01T11:47:59.400Z,6.75
2019-05-01T11:50:27.625Z,5.97
2019-05-01T11:53:15.328Z,6.50
2019-05-01T11:55:43.557Z,6.33
2019-05-01T11:58:11.838Z,6.28
2019-05-01T12:00:40.095Z,6.25
2019-05-01T12:03:08.351Z,6.03
2019-05-01T12:05:36.657Z,6.03
2019-05-01T12:08:04.954Z,6.05
2019-05-01T12:10:33.200Z,6.78
2019-05-01T12:13:01.493Z,6.25
2019-05-01T12:15:29.735Z,5.85
2019-05-01T12:17:57.972Z,5.37
2019-05-01T12:20:26.255Z,6.10
2019-05-01T12:22:54.481Z,6.33
2019-05-01T12:25:22.743Z,5.67
2019-05-01T12:27:50.968Z,5.62
2019-05-01T12:30:19.226Z,5.92
2019-05-01T12:32:47.468Z,5.80
2019-05-01T12:35:15.725Z,5.45
2019-05-01T12:37:44.129Z,4.60
2019-05-01T12:40:14.633Z,5.17
2019-05-01T12:42:42.887Z,5.00
2019-05-01T12:45:11.412Z,4.90
2019-05-01T12:47:41.306Z,4.25
2019-05-01T12:50:10.712Z,5.07
2019-05-01T12:52:43.314Z,4.35
2019-05-01T12:55:25.193Z,4.17
2019-05-01T12:57:53.428Z,4.65
2019-05-01T13:00:25.028Z,4.65
2019-05-01T13:02:53.273Z,4.10
2019-05-01T13:05:21.524Z,6.28
2019-05-01T13:07:52.387Z,4.20
2019-05-01T13:10:19.717Z,4.12
2019-05-01T13:12:47.973Z,4.55
2019-05-01T13:15:16.306Z,3.72
2019-05-01T13:17:44.546Z,3.77
2019-05-01T13:20:12.829Z,4.50
2019-05-01T13:22:41.068Z,3.98
2019-05-01T13:25:09.325Z,4.33
2019-05-01T13:27:42.162Z,3.70
2019-05-01T13:30:19.395Z,4.12
2019-05-01T13:32:49.298Z,3.90
2019-05-01T13:35:17.517Z,3.75
2019-05-01T13:37:45.773Z,3.80
2019-05-01T13:40:14.253Z,3.67
2019-05-01T13:42:42.528Z,3.60
2019-05-01T13:45:10.841Z,3.50
2019-05-01T13:47:39.169Z,3.98
2019-05-01T13:50:07.407Z,3.75
2019-05-01T13:52:36.500Z,4.42
2019-05-01T13:55:06.305Z,4.20
2019-05-01T13:57:34.562Z,3.57
2019-05-01T14:00:03.848Z,3.47
2019-05-01T14:02:32.120Z,3.62
2019-05-01T14:05:00.352Z,3.98
2019-05-01T14:07:28.641Z,3.95
2019-05-01T14:09:56.873Z,3.67
2019-05-01T14:12:25.126Z,3.50
2019-05-01T14:14:56.079Z,3.20
2019-05-01T14:17:24.321Z,3.60
2019-05-01T14:20:09.241Z,3.37
2019-05-01T14:22:39.138Z,3.47
2019-05-01T14:25:11.128Z,3.45
2019-05-01T14:27:39.376Z,3.83
2019-05-01T14:30:09.636Z,4.15
2019-05-01T14:32:37.881Z,3.22
2019-05-01T14:35:07.669Z,3.77
2019-05-01T14:37:35.906Z,3.70
2019-05-01T14:40:05.613Z,3.22
2019-05-01T14:42:33.857Z,3.05
2019-05-01T14:45:02.226Z,3.05
2019-05-01T14:47:30.477Z,3.35
2019-05-01T14:49:58.754Z,3.27
2019-05-01T14:52:27.005Z,3.02
2019-05-01T14:54:58.166Z,3.50
2019-05-01T14:57:26.444Z,3.35
2019-05-01T14:59:54.780Z,3.00
2019-05-01T15:02:23.028Z,2.87
2019-05-01T15:04:51.288Z,3.25
2019-05-01T15:07:19.537Z,3.83
2019-05-01T15:09:47.808Z,3.02
2019-05-01T15:12:16.040Z,3.60
2019-05-01T15:14:48.941Z,3.10
2019-05-01T15:17:18.829Z,3.12
2019-05-01T15:19:48.727Z,3.37
2019-05-01T15:22:16.991Z,3.43
2019-05-01T15:24:45.245Z,3.25
2019-05-01T15:27:13.504Z,3.17
2019-05-01T15:29:41.776Z,3.08
2019-05-01T15:32:09.993Z,3.05
2019-05-01T15:34:38.286Z,2.70
2019-05-01T15:37:06.503Z,2.70
2019-05-01T15:39:39.393Z,3.50
2019-05-01T15:42:09.285Z,3.35
2019-05-01T15:44:39.180Z,3.00
2019-05-01T15:47:07.462Z,3.70
2019-05-01T15:49:35.699Z,3.27
2019-05-01T15:52:03.957Z,3.25
2019-05-01T15:54:32.189Z,3.30
2019-05-01T15:57:00.445Z,3.70
2019-05-01T15:59:28.685Z,3.10
2019-05-01T16:01:57.027Z,3.47
2019-05-01T16:04:25.254Z,3.52
2019-05-01T16:06:53.512Z,2.85
2019-05-01T16:09:21.747Z,2.80
2019-05-01T16:12:07.889Z,3.02
2019-05-01T16:14:36.479Z,2.85
2019-05-01T16:17:04.817Z,3.15
2019-05-01T16:19:33.091Z,3.15
2019-05-01T16:22:01.414Z,3.37
2019-05-01T16:24:29.653Z,2.80
2019-05-01T16:26:59.557Z,3.08
2019-05-01T16:29:27.842Z,2.80
2019-05-01T16:31:56.103Z,3.08
2019-05-01T16:34:24.339Z,2.60
2019-05-01T16:36:52.606Z,2.62
2019-05-01T16:39:22.506Z,2.33
2019-05-01T16:41:50.856Z,2.62
2019-05-01T16:44:19.084Z,3.00
2019-05-01T16:46:47.387Z,2.98
2019-05-01T16:49:15.623Z,2.35
2019-05-01T16:51:43.894Z,2.75
2019-05-01T16:54:12.107Z,2.40
2019-05-01T16:56:40.387Z,2.42
2019-05-01T16:59:09.625Z,2.87
2019-05-01T17:01:51.588Z,2.45
2019-05-01T17:04:33.598Z,2.77
2019-05-01T17:07:09.132Z,2.47
2019-05-01T17:09:44.738Z,2.75
2019-05-01T17:12:14.462Z,2.45
2019-05-01T17:14:42.802Z,2.60
2019-05-01T17:17:12.703Z,2.87
2019-05-01T17:19:40.985Z,2.50
2019-05-01T17:22:14.296Z,2.50
2019-05-01T17:24:39.419Z,2.55
2019-05-01T17:27:07.678Z,2.25
2019-05-01T17:29:35.927Z,2.70
2019-05-01T17:32:05.391Z,2.40
2019-05-01T17:34:33.888Z,2.35
2019-05-01T17:37:02.153Z,2.90
2019-05-01T17:39:33.618Z,2.42
2019-05-01T17:42:03.369Z,3.02
2019-05-01T17:44:31.641Z,2.58
2019-05-01T17:46:59.909Z,2.50
2019-05-01T17:49:28.182Z,2.80
2019-05-01T17:51:56.557Z,2.47
2019-05-01T17:54:24.865Z,2.83
2019-05-01T17:56:53.843Z,2.70
2019-05-01T17:59:23.079Z,2.95
2019-05-01T18:01:55.780Z,2.72
2019-05-01T18:04:31.154Z,3.12
2019-05-01T18:06:59.861Z,2.67
2019-05-01T18:09:28.141Z,2.85
2019-05-01T18:11:56.406Z,2.62
2019-05-01T18:14:24.719Z,3.08
2019-05-01T18:16:53.018Z,2.60
2019-05-01T18:19:21.261Z,2.87
2019-05-01T18:21:51.923Z,2.72
2019-05-01T18:24:23.183Z,2.80
2019-05-01T18:26:53.796Z,2.87
2019-05-01T18:29:23.684Z,2.90
2019-05-01T18:31:52.025Z,2.67
2019-05-01T18:34:20.292Z,2.65
2019-05-01T18:36:50.192Z,2.77
2019-05-01T18:39:25.836Z,2.52
2019-05-01T18:41:54.636Z,2.90
2019-05-01T18:44:46.886Z,2.90
2019-05-01T18:47:12.265Z,2.85
2019-05-01T18:49:40.494Z,3.35
2019-05-01T18:52:09.385Z,2.80
2019-05-01T18:54:37.692Z,3.00
2019-05-01T18:57:06.071Z,2.80
2019-05-01T18:59:34.868Z,3.25
2019-05-01T19:02:04.854Z,3.55
2019-05-01T19:04:33.097Z,3.20
2019-05-01T19:07:01.369Z,3.75
2019-05-01T19:09:30.673Z,3.75
2019-05-01T19:11:59.296Z,3.67
2019-05-01T19:14:29.159Z,3.42
2019-05-01T19:16:58.581Z,3.40
2019-05-01T19:19:26.879Z,3.52
2019-05-01T19:21:55.180Z,3.37
2019-05-01T19:24:23.940Z,3.67
2019-05-01T19:26:52.231Z,3.20
2019-05-01T19:29:20.564Z,3.95
2019-05-01T19:31:48.794Z,3.90
2019-05-01T19:34:17.052Z,3.58
2019-05-01T19:36:46.294Z,3.65
2019-05-01T19:39:14.701Z,3.80
2019-05-01T19:41:43.795Z,3.92
2019-05-01T19:44:13.944Z,4.10
2019-05-01T19:46:42.938Z,3.80
2019-05-01T19:49:11.193Z,3.85
2019-05-01T19:51:39.451Z,4.12
2019-05-01T19:54:07.784Z,4.60
2019-05-01T19:56:36.026Z,4.17
2019-05-01T19:59:04.341Z,4.10
2019-05-01T20:01:32.656Z,3.80
2019-05-01T20:04:00.971Z,3.98
2019-05-01T20:06:29.233Z,4.05
2019-05-01T20:08:57.477Z,4.30
2019-05-01T20:11:25.825Z,4.03
2019-05-01T20:13:54.091Z,4.30
2019-05-01T20:16:23.007Z,4.37
2019-05-01T20:18:51.281Z,4.05
2019-05-01T20:21:19.530Z,4.00
2019-05-01T20:23:47.812Z,3.67
2019-05-01T20:26:16.056Z,3.75
2019-05-01T20:28:44.290Z,4.20
2019-05-01T20:31:12.558Z,4.40
2019-05-01T20:33:44.131Z,4.03
2019-05-01T20:36:10.800Z,3.72
2019-05-01T20:38:39.121Z,4.50
2019-05-01T20:41:10.125Z,3.92
2019-05-01T20:43:38.248Z,3.83
2019-05-01T20:46:10.073Z,4.37
2019-05-01T20:51:06.143Z,3.90
2019-05-01T20:53:34.380Z,4.00
2019-05-01T20:56:04.290Z,3.87
2019-05-01T20:58:32.535Z,4.22
2019-05-01T21:01:02.447Z,4.20
2019-05-01T21:03:31.188Z,4.58
2019-05-01T21:06:07.832Z,4.45
2019-05-01T21:08:39.282Z,3.98
2019-05-01T21:11:10.981Z,4.05
2019-05-01T21:13:37.521Z,4.17
2019-05-01T21:16:05.798Z,4.53
2019-05-01T21:18:34.082Z,4.22
2019-05-01T21:21:03.486Z,4.15
2019-05-01T21:23:33.422Z,4.30
2019-05-01T21:26:03.738Z,4.28
2019-05-01T21:28:33.919Z,4.33
2019-05-01T21:31:03.831Z,4.85
2019-05-01T21:33:33.840Z,4.72
2019-05-01T21:36:04.945Z,4.72
2019-05-01T21:38:31.833Z,4.83
2019-05-01T21:41:00.118Z,4.40
2019-05-01T21:43:33.176Z,4.20
2019-05-01T21:45:58.349Z,4.45
2019-05-01T21:48:26.590Z,4.62
2019-05-01T21:50:57.999Z,4.70
2019-05-01T21:53:27.840Z,4.30
2019-05-01T21:55:56.071Z,4.12
2019-05-01T21:58:28.284Z,4.62
2019-05-01T22:00:59.186Z,4.20
2019-05-01T22:03:25.042Z,4.08
2019-05-01T22:05:53.349Z,4.35
2019-05-01T22:08:21.695Z,4.20
2019-05-01T22:10:52.043Z,4.03
2019-05-01T22:13:24.048Z,3.92
2019-05-01T22:15:51.672Z,4.70
2019-05-01T22:18:24.543Z,3.98
2019-05-01T22:21:03.462Z,4.08
2019-05-01T22:23:52.653Z,4.40
2019-05-01T22:26:21.341Z,4.17
2019-05-01T22:28:54.803Z,4.30
2019-05-01T22:31:25.548Z,3.90
2019-05-01T22:33:55.450Z,4.10
2019-05-01T22:36:23.737Z,3.70
2019-05-01T22:38:52.006Z,3.75
2019-05-01T22:41:20.229Z,3.95
2019-05-01T22:43:48.564Z,4.10
2019-05-01T22:46:18.444Z,4.08
2019-05-01T22:48:46.690Z,4.33
2019-05-01T22:51:19.013Z,4.42
2019-05-01T22:53:48.900Z,4.30
2019-05-01T22:56:17.224Z,4.65
2019-05-01T22:58:45.517Z,4.33
2019-05-01T23:01:18.105Z,4.40
2019-05-01T23:03:48.142Z,4.03
2019-05-01T23:06:16.508Z,4.30
2019-05-01T23:08:44.743Z,4.22
2019-05-01T23:11:19.795Z,3.98
2019-05-01T23:13:43.660Z,4.08
2019-05-01T23:16:12.047Z,4.55
2019-05-01T23:18:40.288Z,4.37
2019-05-01T23:21:09.923Z,4.20
2019-05-01T23:23:38.489Z,4.37
2019-05-01T23:26:06.871Z,4.73
2019-05-01T23:28:39.642Z,4.58
2019-05-01T23:31:05.832Z,4.90
2019-05-01T23:33:34.069Z,4.42
2019-05-01T23:36:02.326Z,4.30
2019-05-01T23:38:30.569Z,4.22
2019-05-01T23:40:58.902Z,4.30
2019-05-01T23:43:27.772Z,4.70
2019-05-01T23:45:57.364Z,5.10
2019-05-01T23:48:25.602Z,4.30
2019-05-01T23:50:53.860Z,4.20
2019-05-01T23:53:22.086Z,4.77
2019-05-01T23:55:54.609Z,4.57
2019-05-01T23:58:20.297Z,4.70
